Cuivre River (Missouri), Troy (05514500)

StateMissouriCurrentPotential (50 cfs)
RiverCuivre RiverFlood - The river is flooding. Obstacles can be treacherous or deadly. The river should be avoided at this stage for casual trips and definitely for the inexperienced. Trips should be attempted only with protective gear and equipment.Flood(none)
Updated2019-10-13 19:30 (5 minutes ago)High - The river is high and potentially dangerous, especially for the young and / or inexperienced. Normal stream obstacles are sometimes difficult to navigate. Extended distances can be attempted, but canoe travel may not be advisable.High(none)
Discharge50 cfs (median: 15 cfs)Good - Conditions are ideal for a canoe or kayak. Boats typically will drag on fewer than one-quarter of riffles, if at all, and portages are unnecessary or rare. Normal float lengths can be attempted without a problem.Good(none)
Height5.65 feetLow - River is low but can still be floated. Some riffles are okay but most come with significant dragging and might need a portage. Float lengths should be reduced to accommodate low flow, dragging, and portages.Low(none)
TrendFalling (falling over 24 hours)Poor - River is too low to float comfortably. Most or all riffles will drag or must be portaged and some obstacles (such as slick shelf rock) cause undue problems. Avoid the river at this stage for casual paddling trips.Poor(none)
USGSExternal icon USGS Site for Troy (05514500)LocationExternal icon Google Maps

Trending Data

Plot Image
ObservationHeightDischargeMaximum
Discharge
Minimum
Discharge
Mean
Discharge
P05P10P20P25P50
(Median)
P75P80P90P95
2019-10-13 19:30 5.65 50 59500 (1970) 0 (1965) 829 1 2 3 4 15 95 130 347 998
2019-10-13 19:00 5.66 52 59500 (1970) 0 (1965) 829 1 2 3 4 15 95 130 347 998
2019-10-13 18:30 5.66 52 59500 (1970) 0 (1965) 829 1 2 3 4 15 95 130 347 998
2019-10-13 18:00 5.66 52 59500 (1970) 0 (1965) 829 1 2 3 4 15 95 130 347 998
2019-10-13 17:30 5.62 47 59500 (1970) 0 (1965) 829 1 2 3 4 15 95 130 347 998
2019-10-13 17:00 5.67 53 59500 (1970) 0 (1965) 829 1 2 3 4 15 95 130 347 998
2019-10-13 16:30 5.67 53 59500 (1970) 0 (1965) 829 1 2 3 4 15 95 130 347 998
2019-10-13 16:00 5.62 47 59500 (1970) 0 (1965) 829 1 2 3 4 15 95 130 347 998
2019-10-13 15:30 5.64 49 59500 (1970) 0 (1965) 829 1 2 3 4 15 95 130 347 998
2019-10-13 15:00 5.64 49 59500 (1970) 0 (1965) 829 1 2 3 4 15 95 130 347 998
2019-10-13 14:30 5.64 49 59500 (1970) 0 (1965) 829 1 2 3 4 15 95 130 347 998
2019-10-13 14:00 5.63 48 59500 (1970) 0 (1965) 829 1 2 3 4 15 95 130 347 998
2019-10-13 13:30 5.69 55 59500 (1970) 0 (1965) 829 1 2 3 4 15 95 130 347 998
2019-10-13 13:00 5.65 50 59500 (1970) 0 (1965) 829 1 2 3 4 15 95 130 347 998
2019-10-13 12:30 5.66 52 59500 (1970) 0 (1965) 829 1 2 3 4 15 95 130 347 998
2019-10-13 12:00 5.70 56 59500 (1970) 0 (1965) 829 1 2 3 4 15 95 130 347 998
2019-10-13 11:30 5.70 56 59500 (1970) 0 (1965) 829 1 2 3 4 15 95 130 347 998
2019-10-13 11:00 5.70 56 59500 (1970) 0 (1965) 829 1 2 3 4 15 95 130 347 998
2019-10-13 10:30 5.69 55 59500 (1970) 0 (1965) 829 1 2 3 4 15 95 130 347 998
2019-10-13 10:00 5.64 49 59500 (1970) 0 (1965) 829 1 2 3 4 15 95 130 347 998
2019-10-13 09:30 5.70 56 59500 (1970) 0 (1965) 829 1 2 3 4 15 95 130 347 998
2019-10-13 09:00 5.72 59 59500 (1970) 0 (1965) 829 1 2 3 4 15 95 130 347 998
2019-10-13 08:30 5.73 60 59500 (1970) 0 (1965) 829 1 2 3 4 15 95 130 347 998
2019-10-13 08:00 5.73 60 59500 (1970) 0 (1965) 829 1 2 3 4 15 95 130 347 998
2019-10-13 07:30 5.73 60 59500 (1970) 0 (1965) 829 1 2 3 4 15 95 130 347 998
2019-10-13 07:00 5.74 61 59500 (1970) 0 (1965) 829 1 2 3 4 15 95 130 347 998
2019-10-13 06:30 5.74 61 59500 (1970) 0 (1965) 829 1 2 3 4 15 95 130 347 998
2019-10-13 06:00 5.74 61 59500 (1970) 0 (1965) 829 1 2 3 4 15 95 130 347 998
2019-10-13 05:30 5.75 62 59500 (1970) 0 (1965) 829 1 2 3 4 15 95 130 347 998
2019-10-13 05:00 5.75 62 59500 (1970) 0 (1965) 829 1 2 3 4 15 95 130 347 998
2019-10-13 04:30 5.75 62 59500 (1970) 0 (1965) 829 1 2 3 4 15 95 130 347 998
2019-10-13 04:00 5.76 64 59500 (1970) 0 (1965) 829 1 2 3 4 15 95 130 347 998
2019-10-13 03:30 5.76 64 59500 (1970) 0 (1965) 829 1 2 3 4 15 95 130 347 998
2019-10-13 03:00 5.76 64 59500 (1970) 0 (1965) 829 1 2 3 4 15 95 130 347 998
2019-10-13 02:30 5.77 65 59500 (1970) 0 (1965) 829 1 2 3 4 15 95 130 347 998
2019-10-13 02:00 5.77 65 59500 (1970) 0 (1965) 829 1 2 3 4 15 95 130 347 998
2019-10-13 01:30 5.77 65 59500 (1970) 0 (1965) 829 1 2 3 4 15 95 130 347 998
2019-10-13 01:00 5.78 66 59500 (1970) 0 (1965) 829 1 2 3 4 15 95 130 347 998
2019-10-13 00:30 5.78 66 59500 (1970) 0 (1965) 829 1 2 3 4 15 95 130 347 998
2019-10-13 00:00 5.78 66 59500 (1970) 0 (1965) 829 1 2 3 4 15 95 130 347 998
2019-10-12 23:30 5.78 66 44800 (1970) 0 (1965) 717 1 2 3 4 16 103 132 492 1270
2019-10-12 23:00 5.78 66 44800 (1970) 0 (1965) 717 1 2 3 4 16 103 132 492 1270
2019-10-12 22:30 5.78 66 44800 (1970) 0 (1965) 717 1 2 3 4 16 103 132 492 1270
2019-10-12 22:00 5.78 66 44800 (1970) 0 (1965) 717 1 2 3 4 16 103 132 492 1270
2019-10-12 21:30 5.78 66 44800 (1970) 0 (1965) 717 1 2 3 4 16 103 132 492 1270
2019-10-12 21:00 5.77 65 44800 (1970) 0 (1965) 717 1 2 3 4 16 103 132 492 1270
2019-10-12 20:30 5.76 64 44800 (1970) 0 (1965) 717 1 2 3 4 16 103 132 492 1270
2019-10-12 20:00 5.75 62 44800 (1970) 0 (1965) 717 1 2 3 4 16 103 132 492 1270
2019-10-12 19:30 5.72 59 44800 (1970) 0 (1965) 717 1 2 3 4 16 103 132 492 1270
2019-10-12 19:00 5.69 55 44800 (1970) 0 (1965) 717 1 2 3 4 16 103 132 492 1270
2019-10-12 18:30 5.64 49 44800 (1970) 0 (1965) 717 1 2 3 4 16 103 132 492 1270
2019-10-12 18:00 5.59 44 44800 (1970) 0 (1965) 717 1 2 3 4 16 103 132 492 1270
2019-10-12 17:30 5.54 39 44800 (1970) 0 (1965) 717 1 2 3 4 16 103 132 492 1270
2019-10-12 17:00 5.51 37 44800 (1970) 0 (1965) 717 1 2 3 4 16 103 132 492 1270
2019-10-12 16:30 5.47 33 44800 (1970) 0 (1965) 717 1 2 3 4 16 103 132 492 1270
2019-10-12 16:00 32 44800 (1970) 0 (1965) 717 1 2 3 4 16 103 132 492 1270
2019-10-12 15:30 5.45 32 44800 (1970) 0 (1965) 717 1 2 3 4 16 103 132 492 1270
2019-10-12 15:00 5.48 34 44800 (1970) 0 (1965) 717 1 2 3 4 16 103 132 492 1270
2019-10-12 14:30 5.48 34 44800 (1970) 0 (1965) 717 1 2 3 4 16 103 132 492 1270
2019-10-12 14:00 5.46 32 44800 (1970) 0 (1965) 717 1 2 3 4 16 103 132 492 1270
2019-10-12 13:30 5.44 31 44800 (1970) 0 (1965) 717 1 2 3 4 16 103 132 492 1270
2019-10-12 13:00 5.49 35 44800 (1970) 0 (1965) 717 1 2 3 4 16 103 132 492 1270
2019-10-12 12:30 5.45 32 44800 (1970) 0 (1965) 717 1 2 3 4 16 103 132 492 1270
2019-10-12 12:00 5.44 31 44800 (1970) 0 (1965) 717 1 2 3 4 16 103 132 492 1270
2019-10-12 11:30 5.44 31 44800 (1970) 0 (1965) 717 1 2 3 4 16 103 132 492 1270
2019-10-12 11:00 5.42 29 44800 (1970) 0 (1965) 717 1 2 3 4 16 103 132 492 1270
2019-10-12 10:30 5.45 32 44800 (1970) 0 (1965) 717 1 2 3 4 16 103 132 492 1270
2019-10-12 10:00 5.45 32 44800 (1970) 0 (1965) 717 1 2 3 4 16 103 132 492 1270
2019-10-12 09:30 5.49 35 44800 (1970) 0 (1965) 717 1 2 3 4 16 103 132 492 1270
2019-10-12 09:00 5.50 36 44800 (1970) 0 (1965) 717 1 2 3 4 16 103 132 492 1270
2019-10-12 08:30 5.50 36 44800 (1970) 0 (1965) 717 1 2 3 4 16 103 132 492 1270
2019-10-12 08:00 5.50 36 44800 (1970) 0 (1965) 717 1 2 3 4 16 103 132 492 1270
2019-10-12 07:30 5.50 36 44800 (1970) 0 (1965) 717 1 2 3 4 16 103 132 492 1270
2019-10-12 07:00 5.51 37 44800 (1970) 0 (1965) 717 1 2 3 4 16 103 132 492 1270
2019-10-12 06:30 5.51 37 44800 (1970) 0 (1965) 717 1 2 3 4 16 103 132 492 1270
2019-10-12 06:00 5.51 37 44800 (1970) 0 (1965) 717 1 2 3 4 16 103 132 492 1270
2019-10-12 05:30 5.51 37 44800 (1970) 0 (1965) 717 1 2 3 4 16 103 132 492 1270
2019-10-12 05:00 5.51 37 44800 (1970) 0 (1965) 717 1 2 3 4 16 103 132 492 1270
2019-10-12 04:30 5.51 37 44800 (1970) 0 (1965) 717 1 2 3 4 16 103 132 492 1270
2019-10-12 04:00 5.51 37 44800 (1970) 0 (1965) 717 1 2 3 4 16 103 132 492 1270
2019-10-12 03:30 5.51 37 44800 (1970) 0 (1965) 717 1 2 3 4 16 103 132 492 1270
2019-10-12 03:00 5.52 38 44800 (1970) 0 (1965) 717 1 2 3 4 16 103 132 492 1270
2019-10-12 02:30 5.52 38 44800 (1970) 0 (1965) 717 1 2 3 4 16 103 132 492 1270
2019-10-12 02:00 5.52 38 44800 (1970) 0 (1965) 717 1 2 3 4 16 103 132 492 1270
2019-10-12 01:30 5.52 38 44800 (1970) 0 (1965) 717 1 2 3 4 16 103 132 492 1270
2019-10-12 01:00 5.53 38 44800 (1970) 0 (1965) 717 1 2 3 4 16 103 132 492 1270
2019-10-12 00:30 5.53 38 44800 (1970) 0 (1965) 717 1 2 3 4 16 103 132 492 1270
2019-10-12 00:00 5.53 38 44800 (1970) 0 (1965) 717 1 2 3 4 16 103 132 492 1270
2019-10-11 23:30 5.53 38 16600 (1960) 0 (1965) 476 1 2 3 4 18 125 144 905 1860
2019-10-11 23:00 5.54 39 16600 (1960) 0 (1965) 476 1 2 3 4 18 125 144 905 1860
2019-10-11 22:30 5.54 39 16600 (1960) 0 (1965) 476 1 2 3 4 18 125 144 905 1860
2019-10-11 22:00 5.54 39 16600 (1960) 0 (1965) 476 1 2 3 4 18 125 144 905 1860
2019-10-11 21:30 5.54 39 16600 (1960) 0 (1965) 476 1 2 3 4 18 125 144 905 1860
2019-10-11 21:00 5.54 39 16600 (1960) 0 (1965) 476 1 2 3 4 18 125 144 905 1860
2019-10-11 20:30 5.54 39 16600 (1960) 0 (1965) 476 1 2 3 4 18 125 144 905 1860
2019-10-11 20:00 5.54 39 16600 (1960) 0 (1965) 476 1 2 3 4 18 125 144 905 1860
2019-10-11 19:30 5.55 40 16600 (1960) 0 (1965) 476 1 2 3 4 18 125 144 905 1860
2019-10-11 19:00 5.55 40 16600 (1960) 0 (1965) 476 1 2 3 4 18 125 144 905 1860
2019-10-11 18:30 5.55 40 16600 (1960) 0 (1965) 476 1 2 3 4 18 125 144 905 1860
2019-10-11 18:00 5.51 37 16600 (1960) 0 (1965) 476 1 2 3 4 18 125 144 905 1860
2019-10-11 17:30 5.50 36 16600 (1960) 0 (1965) 476 1 2 3 4 18 125 144 905 1860
2019-10-11 17:00 5.50 36 16600 (1960) 0 (1965) 476 1 2 3 4 18 125 144 905 1860
2019-10-11 16:30 5.49 35 16600 (1960) 0 (1965) 476 1 2 3 4 18 125 144 905 1860
2019-10-11 16:00 5.51 37 16600 (1960) 0 (1965) 476 1 2 3 4 18 125 144 905 1860
2019-10-11 15:30 5.46 32 16600 (1960) 0 (1965) 476 1 2 3 4 18 125 144 905 1860
2019-10-11 15:00 5.47 33 16600 (1960) 0 (1965) 476 1 2 3 4 18 125 144 905 1860
2019-10-11 14:30 5.49 35 16600 (1960) 0 (1965) 476 1 2 3 4 18 125 144 905 1860
2019-10-11 14:00 5.49 35 16600 (1960) 0 (1965) 476 1 2 3 4 18 125 144 905 1860
2019-10-11 13:30 5.51 37 16600 (1960) 0 (1965) 476 1 2 3 4 18 125 144 905 1860
2019-10-11 13:00 5.49 35 16600 (1960) 0 (1965) 476 1 2 3 4 18 125 144 905 1860
2019-10-11 12:30 5.48 34 16600 (1960) 0 (1965) 476 1 2 3 4 18 125 144 905 1860
2019-10-11 12:00 5.52 38 16600 (1960) 0 (1965) 476 1 2 3 4 18 125 144 905 1860
2019-10-11 11:30 5.50 36 16600 (1960) 0 (1965) 476 1 2 3 4 18 125 144 905 1860
2019-10-11 11:00 5.49 35 16600 (1960) 0 (1965) 476 1 2 3 4 18 125 144 905 1860
2019-10-11 10:30 5.49 35 16600 (1960) 0 (1965) 476 1 2 3 4 18 125 144 905 1860
2019-10-11 10:00 5.50 36 16600 (1960) 0 (1965) 476 1 2 3 4 18 125 144 905 1860
2019-10-11 09:30 5.48 34 16600 (1960) 0 (1965) 476 1 2 3 4 18 125 144 905 1860
2019-10-11 09:00 5.52 38 16600 (1960) 0 (1965) 476 1 2 3 4 18 125 144 905 1860
2019-10-11 08:30 5.50 36 16600 (1960) 0 (1965) 476 1 2 3 4 18 125 144 905 1860
2019-10-11 08:00 5.51 37 16600 (1960) 0 (1965) 476 1 2 3 4 18 125 144 905 1860
2019-10-11 07:30 5.49 35 16600 (1960) 0 (1965) 476 1 2 3 4 18 125 144 905 1860
2019-10-11 07:00 5.49 35 16600 (1960) 0 (1965) 476 1 2 3 4 18 125 144 905 1860
2019-10-11 06:30 5.49 35 16600 (1960) 0 (1965) 476 1 2 3 4 18 125 144 905 1860
2019-10-11 06:00 5.47 33 16600 (1960) 0 (1965) 476 1 2 3 4 18 125 144 905 1860
2019-10-11 05:30 5.48 34 16600 (1960) 0 (1965) 476 1 2 3 4 18 125 144 905 1860
2019-10-11 05:00 5.50 36 16600 (1960) 0 (1965) 476 1 2 3 4 18 125 144 905 1860
2019-10-11 04:30 5.46 32 16600 (1960) 0 (1965) 476 1 2 3 4 18 125 144 905 1860
2019-10-11 04:00 5.47 33 16600 (1960) 0 (1965) 476 1 2 3 4 18 125 144 905 1860
2019-10-11 03:30 5.50 36 16600 (1960) 0 (1965) 476 1 2 3 4 18 125 144 905 1860
2019-10-11 03:00 5.48 34 16600 (1960) 0 (1965) 476 1 2 3 4 18 125 144 905 1860
2019-10-11 02:30 5.54 39 16600 (1960) 0 (1965) 476 1 2 3 4 18 125 144 905 1860
2019-10-11 02:00 5.54 39 16600 (1960) 0 (1965) 476 1 2 3 4 18 125 144 905 1860
2019-10-11 01:30 5.55 40 16600 (1960) 0 (1965) 476 1 2 3 4 18 125 144 905 1860
2019-10-11 01:00 5.54 39 16600 (1960) 0 (1965) 476 1 2 3 4 18 125 144 905 1860
2019-10-11 00:30 5.54 39 16600 (1960) 0 (1965) 476 1 2 3 4 18 125 144 905 1860
2019-10-11 00:00 5.49 35 16600 (1960) 0 (1965) 476 1 2 3 4 18 125 144 905 1860
2019-10-10 23:30 5.50 36 15400 (2010) 0 (1965) 395 1 2 3 4 19 135 190 791 2300
2019-10-10 23:00 5.48 34 15400 (2010) 0 (1965) 395 1 2 3 4 19 135 190 791 2300
2019-10-10 22:30 5.49 35 15400 (2010) 0 (1965) 395 1 2 3 4 19 135 190 791 2300
2019-10-10 22:00 5.46 32 15400 (2010) 0 (1965) 395 1 2 3 4 19 135 190 791 2300
2019-10-10 21:30 5.50 36 15400 (2010) 0 (1965) 395 1 2 3 4 19 135 190 791 2300
2019-10-10 21:00 5.51 37 15400 (2010) 0 (1965) 395 1 2 3 4 19 135 190 791 2300
2019-10-10 20:30 5.51 37 15400 (2010) 0 (1965) 395 1 2 3 4 19 135 190 791 2300
2019-10-10 20:00 5.50 36 15400 (2010) 0 (1965) 395 1 2 3 4 19 135 190 791 2300
2019-10-10 19:30 5.51 37 15400 (2010) 0 (1965) 395 1 2 3 4 19 135 190 791 2300
2019-10-10 19:00 5.51 37 15400 (2010) 0 (1965) 395 1 2 3 4 19 135 190 791 2300
2019-10-10 18:30 5.52 38 15400 (2010) 0 (1965) 395 1 2 3 4 19 135 190 791 2300
2019-10-10 18:00 5.52 38 15400 (2010) 0 (1965) 395 1 2 3 4 19 135 190 791 2300
2019-10-10 17:30 5.51 37 15400 (2010) 0 (1965) 395 1 2 3 4 19 135 190 791 2300
2019-10-10 17:00 5.51 37 15400 (2010) 0 (1965) 395 1 2 3 4 19 135 190 791 2300
2019-10-10 16:30 5.46 32 15400 (2010) 0 (1965) 395 1 2 3 4 19 135 190 791 2300
2019-10-10 16:00 5.46 32 15400 (2010) 0 (1965) 395 1 2 3 4 19 135 190 791 2300
2019-10-10 15:30 5.43 30 15400 (2010) 0 (1965) 395 1 2 3 4 19 135 190 791 2300
2019-10-10 15:00 5.39 27 15400 (2010) 0 (1965) 395 1 2 3 4 19 135 190 791 2300
2019-10-10 14:30 5.38 26 15400 (2010) 0 (1965) 395 1 2 3 4 19 135 190 791 2300
2019-10-10 14:00 5.37 26 15400 (2010) 0 (1965) 395 1 2 3 4 19 135 190 791 2300
2019-10-10 13:30 5.35 24 15400 (2010) 0 (1965) 395 1 2 3 4 19 135 190 791 2300
2019-10-10 13:00 5.29 21 15400 (2010) 0 (1965) 395 1 2 3 4 19 135 190 791 2300
2019-10-10 12:30 5.29 21 15400 (2010) 0 (1965) 395 1 2 3 4 19 135 190 791 2300
2019-10-10 12:00 5.30 21 15400 (2010) 0 (1965) 395 1 2 3 4 19 135 190 791 2300
2019-10-10 11:30 5.32 23 15400 (2010) 0 (1965) 395 1 2 3 4 19 135 190 791 2300
2019-10-10 11:00 5.25 19 15400 (2010) 0 (1965) 395 1 2 3 4 19 135 190 791 2300
2019-10-10 10:30 5.28 20 15400 (2010) 0 (1965) 395 1 2 3 4 19 135 190 791 2300
2019-10-10 10:00 5.30 21 15400 (2010) 0 (1965) 395 1 2 3 4 19 135 190 791 2300
2019-10-10 09:30 5.30 21 15400 (2010) 0 (1965) 395 1 2 3 4 19 135 190 791 2300
2019-10-10 09:00 5.30 21 15400 (2010) 0 (1965) 395 1 2 3 4 19 135 190 791 2300
2019-10-10 08:30 5.30 21 15400 (2010) 0 (1965) 395 1 2 3 4 19 135 190 791 2300
2019-10-10 08:00 5.29 21 15400 (2010) 0 (1965) 395 1 2 3 4 19 135 190 791 2300
2019-10-10 07:30 5.27 20 15400 (2010) 0 (1965) 395 1 2 3 4 19 135 190 791 2300
2019-10-10 07:00 5.28 20 15400 (2010) 0 (1965) 395 1 2 3 4 19 135 190 791 2300
2019-10-10 06:30 5.26 19 15400 (2010) 0 (1965) 395 1 2 3 4 19 135 190 791 2300
2019-10-10 06:00 5.25 19 15400 (2010) 0 (1965) 395 1 2 3 4 19 135 190 791 2300
2019-10-10 05:30 5.29 21 15400 (2010) 0 (1965) 395 1 2 3 4 19 135 190 791 2300
2019-10-10 05:00 5.28 20 15400 (2010) 0 (1965) 395 1 2 3 4 19 135 190 791 2300
2019-10-10 04:30 5.30 21 15400 (2010) 0 (1965) 395 1 2 3 4 19 135 190 791 2300
2019-10-10 04:00 5.30 21 15400 (2010) 0 (1965) 395 1 2 3 4 19 135 190 791 2300
2019-10-10 03:30 5.30 21 15400 (2010) 0 (1965) 395 1 2 3 4 19 135 190 791 2300
2019-10-10 03:00 5.30 21 15400 (2010) 0 (1965) 395 1 2 3 4 19 135 190 791 2300
2019-10-10 02:30 5.30 21 15400 (2010) 0 (1965) 395 1 2 3 4 19 135 190 791 2300
2019-10-10 02:00 5.30 21 15400 (2010) 0 (1965) 395 1 2 3 4 19 135 190 791 2300
2019-10-10 01:30 5.30 21 15400 (2010) 0 (1965) 395 1 2 3 4 19 135 190 791 2300
2019-10-10 01:00 5.30 21 15400 (2010) 0 (1965) 395 1 2 3 4 19 135 190 791 2300
2019-10-10 00:30 5.30 21 15400 (2010) 0 (1965) 395 1 2 3 4 19 135 190 791 2300
2019-10-10 00:00 5.30 21 15400 (2010) 0 (1965) 395 1 2 3 4 19 135 190 791 2300
2019-10-09 23:30 5.30 21 31900 (2010) 0 (1965) 583 1 2 3 4 16 138 235 443 855
2019-10-09 23:00 5.31 22 31900 (2010) 0 (1965) 583 1 2 3 4 16 138 235 443 855
2019-10-09 22:30 5.31 22 31900 (2010) 0 (1965) 583 1 2 3 4 16 138 235 443 855
2019-10-09 22:00 5.31 22 31900 (2010) 0 (1965) 583 1 2 3 4 16 138 235 443 855
2019-10-09 21:30 5.30 21 31900 (2010) 0 (1965) 583 1 2 3 4 16 138 235 443 855
2019-10-09 21:00 5.30 21 31900 (2010) 0 (1965) 583 1 2 3 4 16 138 235 443 855
2019-10-09 20:30 5.30 21 31900 (2010) 0 (1965) 583 1 2 3 4 16 138 235 443 855
2019-10-09 20:00 5.30 21 31900 (2010) 0 (1965) 583 1 2 3 4 16 138 235 443 855
2019-10-09 19:30 5.25 19 31900 (2010) 0 (1965) 583 1 2 3 4 16 138 235 443 855
2019-10-09 19:00 5.31 22 31900 (2010) 0 (1965) 583 1 2 3 4 16 138 235 443 855
2019-10-09 18:30 5.26 19 31900 (2010) 0 (1965) 583 1 2 3 4 16 138 235 443 855
2019-10-09 18:00 5.30 21 31900 (2010) 0 (1965) 583 1 2 3 4 16 138 235 443 855
2019-10-09 17:30 5.31 22 31900 (2010) 0 (1965) 583 1 2 3 4 16 138 235 443 855
2019-10-09 17:00 5.31 22 31900 (2010) 0 (1965) 583 1 2 3 4 16 138 235 443 855
2019-10-09 16:30 5.31 22 31900 (2010) 0 (1965) 583 1 2 3 4 16 138 235 443 855
2019-10-09 16:00 5.31 22 31900 (2010) 0 (1965) 583 1 2 3 4 16 138 235 443 855
2019-10-09 15:30 5.31 22 31900 (2010) 0 (1965) 583 1 2 3 4 16 138 235 443 855
2019-10-09 15:00 5.29 21 31900 (2010) 0 (1965) 583 1 2 3 4 16 138 235 443 855
2019-10-09 14:30 5.26 19 31900 (2010) 0 (1965) 583 1 2 3 4 16 138 235 443 855
2019-10-09 14:00 5.29 21 31900 (2010) 0 (1965) 583 1 2 3 4 16 138 235 443 855
2019-10-09 13:30 5.25 19 31900 (2010) 0 (1965) 583 1 2 3 4 16 138 235 443 855
2019-10-09 13:00 5.24 18 31900 (2010) 0 (1965) 583 1 2 3 4 16 138 235 443 855
2019-10-09 12:30 5.25 19 31900 (2010) 0 (1965) 583 1 2 3 4 16 138 235 443 855
2019-10-09 12:00 5.26 19 31900 (2010) 0 (1965) 583 1 2 3 4 16 138 235 443 855
2019-10-09 11:30 5.24 18 31900 (2010) 0 (1965) 583 1 2 3 4 16 138 235 443 855
2019-10-09 11:00 5.29 21 31900 (2010) 0 (1965) 583 1 2 3 4 16 138 235 443 855
2019-10-09 10:30 5.25 19 31900 (2010) 0 (1965) 583 1 2 3 4 16 138 235 443 855
2019-10-09 10:00 5.26 19 31900 (2010) 0 (1965) 583 1 2 3 4 16 138 235 443 855
2019-10-09 09:30 5.29 21 31900 (2010) 0 (1965) 583 1 2 3 4 16 138 235 443 855
2019-10-09 09:00 5.30 21 31900 (2010) 0 (1965) 583 1 2 3 4 16 138 235 443 855
2019-10-09 08:30 5.30 21 31900 (2010) 0 (1965) 583 1 2 3 4 16 138 235 443 855
2019-10-09 08:00 5.31 22 31900 (2010) 0 (1965) 583 1 2 3 4 16 138 235 443 855
2019-10-09 07:30 5.31 22 31900 (2010) 0 (1965) 583 1 2 3 4 16 138 235 443 855
2019-10-09 07:00 5.31 22 31900 (2010) 0 (1965) 583 1 2 3 4 16 138 235 443 855
2019-10-09 06:30 5.31 22 31900 (2010) 0 (1965) 583 1 2 3 4 16 138 235 443 855
2019-10-09 06:00 5.31 22 31900 (2010) 0 (1965) 583 1 2 3 4 16 138 235 443 855
2019-10-09 05:30 5.31 22 31900 (2010) 0 (1965) 583 1 2 3 4 16 138 235 443 855
2019-10-09 05:00 5.31 22 31900 (2010) 0 (1965) 583 1 2 3 4 16 138 235 443 855
2019-10-09 04:30 5.31 22 31900 (2010) 0 (1965) 583 1 2 3 4 16 138 235 443 855
2019-10-09 04:00 5.31 22 31900 (2010) 0 (1965) 583 1 2 3 4 16 138 235 443 855
2019-10-09 03:30 5.32 23 31900 (2010) 0 (1965) 583 1 2 3 4 16 138 235 443 855
2019-10-09 03:00 5.32 23 31900 (2010) 0 (1965) 583 1 2 3 4 16 138 235 443 855
2019-10-09 02:30 5.32 23 31900 (2010) 0 (1965) 583 1 2 3 4 16 138 235 443 855
2019-10-09 02:00 5.32 23 31900 (2010) 0 (1965) 583 1 2 3 4 16 138 235 443 855
2019-10-09 01:30 5.32 23 31900 (2010) 0 (1965) 583 1 2 3 4 16 138 235 443 855
2019-10-09 01:00 5.32 23 31900 (2010) 0 (1965) 583 1 2 3 4 16 138 235 443 855
2019-10-09 00:30 5.32 23 31900 (2010) 0 (1965) 583 1 2 3 4 16 138 235 443 855
2019-10-09 00:00 5.32 23 31900 (2010) 0 (1965) 583 1 2 3 4 16 138 235 443 855
2019-10-08 23:30 5.32 23 10100 (1929) 0 (1965) 391 1 2 3 4 16 150 207 898 1220
2019-10-08 23:00 5.32 23 10100 (1929) 0 (1965) 391 1 2 3 4 16 150 207 898 1220
2019-10-08 22:30 5.32 23 10100 (1929) 0 (1965) 391 1 2 3 4 16 150 207 898 1220
2019-10-08 22:00 5.32 23 10100 (1929) 0 (1965) 391 1 2 3 4 16 150 207 898 1220
2019-10-08 21:30 5.32 23 10100 (1929) 0 (1965) 391 1 2 3 4 16 150 207 898 1220
2019-10-08 21:00 5.32 23 10100 (1929) 0 (1965) 391 1 2 3 4 16 150 207 898 1220
2019-10-08 20:30 5.32 23 10100 (1929) 0 (1965) 391 1 2 3 4 16 150 207 898 1220
2019-10-08 20:00 5.32 23 10100 (1929) 0 (1965) 391 1 2 3 4 16 150 207 898 1220
2019-10-08 19:30 5.32 23 10100 (1929) 0 (1965) 391 1 2 3 4 16 150 207 898 1220
2019-10-08 19:00 5.32 23 10100 (1929) 0 (1965) 391 1 2 3 4 16 150 207 898 1220
2019-10-08 18:30 5.32 23 10100 (1929) 0 (1965) 391 1 2 3 4 16 150 207 898 1220
2019-10-08 18:00 5.32 23 10100 (1929) 0 (1965) 391 1 2 3 4 16 150 207 898 1220
2019-10-08 17:30 5.32 23 10100 (1929) 0 (1965) 391 1 2 3 4 16 150 207 898 1220
2019-10-08 17:00 5.28 20 10100 (1929) 0 (1965) 391 1 2 3 4 16 150 207 898 1220
2019-10-08 16:30 5.32 23 10100 (1929) 0 (1965) 391 1 2 3 4 16 150 207 898 1220
2019-10-08 16:00 5.33 23 10100 (1929) 0 (1965) 391 1 2 3 4 16 150 207 898 1220
2019-10-08 15:30 5.33 23 10100 (1929) 0 (1965) 391 1 2 3 4 16 150 207 898 1220
2019-10-08 15:00 5.31 22 10100 (1929) 0 (1965) 391 1 2 3 4 16 150 207 898 1220
2019-10-08 14:30 5.28 20 10100 (1929) 0 (1965) 391 1 2 3 4 16 150 207 898 1220
2019-10-08 14:00 5.30 21 10100 (1929) 0 (1965) 391 1 2 3 4 16 150 207 898 1220
2019-10-08 13:30 5.32 23 10100 (1929) 0 (1965) 391 1 2 3 4 16 150 207 898 1220
2019-10-08 13:00 5.28 20 10100 (1929) 0 (1965) 391 1 2 3 4 16 150 207 898 1220
2019-10-08 12:30 5.27 20 10100 (1929) 0 (1965) 391 1 2 3 4 16 150 207 898 1220
2019-10-08 12:00 5.26 19 10100 (1929) 0 (1965) 391 1 2 3 4 16 150 207 898 1220
2019-10-08 11:30 5.27 20 10100 (1929) 0 (1965) 391 1 2 3 4 16 150 207 898 1220
2019-10-08 11:00 5.28 20 10100 (1929) 0 (1965) 391 1 2 3 4 16 150 207 898 1220
2019-10-08 10:30 5.29 21 10100 (1929) 0 (1965) 391 1 2 3 4 16 150 207 898 1220
2019-10-08 10:00 5.32 23 10100 (1929) 0 (1965) 391 1 2 3 4 16 150 207 898 1220
2019-10-08 09:30 5.32 23 10100 (1929) 0 (1965) 391 1 2 3 4 16 150 207 898 1220
2019-10-08 09:00 5.32 23 10100 (1929) 0 (1965) 391 1 2 3 4 16 150 207 898 1220
2019-10-08 08:30 5.33 23 10100 (1929) 0 (1965) 391 1 2 3 4 16 150 207 898 1220
2019-10-08 08:00 5.33 23 10100 (1929) 0 (1965) 391 1 2 3 4 16 150 207 898 1220
2019-10-08 07:30 5.33 23 10100 (1929) 0 (1965) 391 1 2 3 4 16 150 207 898 1220
2019-10-08 07:00 5.33 23 10100 (1929) 0 (1965) 391 1 2 3 4 16 150 207 898 1220
2019-10-08 06:30 5.33 23 10100 (1929) 0 (1965) 391 1 2 3 4 16 150 207 898 1220
2019-10-08 06:00 5.33 23 10100 (1929) 0 (1965) 391 1 2 3 4 16 150 207 898 1220
2019-10-08 05:30 5.33 23 10100 (1929) 0 (1965) 391 1 2 3 4 16 150 207 898 1220
2019-10-08 05:00 5.33 23 10100 (1929) 0 (1965) 391 1 2 3 4 16 150 207 898 1220
2019-10-08 04:30 5.33 23 10100 (1929) 0 (1965) 391 1 2 3 4 16 150 207 898 1220
2019-10-08 04:00 5.33 23 10100 (1929) 0 (1965) 391 1 2 3 4 16 150 207 898 1220
2019-10-08 03:30 5.33 23 10100 (1929) 0 (1965) 391 1 2 3 4 16 150 207 898 1220
2019-10-08 03:00 5.33 23 10100 (1929) 0 (1965) 391 1 2 3 4 16 150 207 898 1220
2019-10-08 02:30 5.33 23 10100 (1929) 0 (1965) 391 1 2 3 4 16 150 207 898 1220
2019-10-08 02:00 5.33 23 10100 (1929) 0 (1965) 391 1 2 3 4 16 150 207 898 1220
2019-10-08 01:30 5.33 23 10100 (1929) 0 (1965) 391 1 2 3 4 16 150 207 898 1220
2019-10-08 01:00 5.33 23 10100 (1929) 0 (1965) 391 1 2 3 4 16 150 207 898 1220
2019-10-08 00:30 5.33 23 10100 (1929) 0 (1965) 391 1 2 3 4 16 150 207 898 1220
2019-10-08 00:00 5.33 23 10100 (1929) 0 (1965) 391 1 2 3 4 16 150 207 898 1220
2019-10-07 23:30 5.33 23 5810 (1956) 0 (1965) 365 1 2 3 4 15 86 213 760 3410
2019-10-07 23:00 5.33 23 5810 (1956) 0 (1965) 365 1 2 3 4 15 86 213 760 3410
2019-10-07 22:30 5.33 23 5810 (1956) 0 (1965) 365 1 2 3 4 15 86 213 760 3410
2019-10-07 22:00 5.33 23 5810 (1956) 0 (1965) 365 1 2 3 4 15 86 213 760 3410
2019-10-07 21:30 5.33 23 5810 (1956) 0 (1965) 365 1 2 3 4 15 86 213 760 3410
2019-10-07 21:00 5.33 23 5810 (1956) 0 (1965) 365 1 2 3 4 15 86 213 760 3410
2019-10-07 20:30 5.33 23 5810 (1956) 0 (1965) 365 1 2 3 4 15 86 213 760 3410
2019-10-07 20:00 5.33 23 5810 (1956) 0 (1965) 365 1 2 3 4 15 86 213 760 3410
2019-10-07 19:30 5.33 23 5810 (1956) 0 (1965) 365 1 2 3 4 15 86 213 760 3410
2019-10-07 19:00 5.33 23 5810 (1956) 0 (1965) 365 1 2 3 4 15 86 213 760 3410
2019-10-07 18:30 5.33 23 5810 (1956) 0 (1965) 365 1 2 3 4 15 86 213 760 3410
2019-10-07 18:00 5.33 23 5810 (1956) 0 (1965) 365 1 2 3 4 15 86 213 760 3410
2019-10-07 17:30 5.33 23 5810 (1956) 0 (1965) 365 1 2 3 4 15 86 213 760 3410
2019-10-07 17:00 5.34 24 5810 (1956) 0 (1965) 365 1 2 3 4 15 86 213 760 3410
2019-10-07 16:30 5.34 24 5810 (1956) 0 (1965) 365 1 2 3 4 15 86 213 760 3410
2019-10-07 16:00 5.34 24 5810 (1956) 0 (1965) 365 1 2 3 4 15 86 213 760 3410
2019-10-07 15:30 5.34 24 5810 (1956) 0 (1965) 365 1 2 3 4 15 86 213 760 3410
2019-10-07 15:00 5.29 21 5810 (1956) 0 (1965) 365 1 2 3 4 15 86 213 760 3410
2019-10-07 14:30 5.33 23 5810 (1956) 0 (1965) 365 1 2 3 4 15 86 213 760 3410
2019-10-07 14:00 5.30 21 5810 (1956) 0 (1965) 365 1 2 3 4 15 86 213 760 3410
2019-10-07 13:30 5.34 24 5810 (1956) 0 (1965) 365 1 2 3 4 15 86 213 760 3410
2019-10-07 13:00 5.28 20 5810 (1956) 0 (1965) 365 1 2 3 4 15 86 213 760 3410
2019-10-07 12:30 5.34 24 5810 (1956) 0 (1965) 365 1 2 3 4 15 86 213 760 3410
2019-10-07 12:00 5.33 23 5810 (1956) 0 (1965) 365 1 2 3 4 15 86 213 760 3410
2019-10-07 11:30 5.33 23 5810 (1956) 0 (1965) 365 1 2 3 4 15 86 213 760 3410
2019-10-07 11:00 5.26 19 5810 (1956) 0 (1965) 365 1 2 3 4 15 86 213 760 3410
2019-10-07 10:30 5.26 19 5810 (1956) 0 (1965) 365 1 2 3 4 15 86 213 760 3410
2019-10-07 10:00 5.26 19 5810 (1956) 0 (1965) 365 1 2 3 4 15 86 213 760 3410
2019-10-07 09:30 5.26 19 5810 (1956) 0 (1965) 365 1 2 3 4 15 86 213 760 3410
2019-10-07 09:00 5.26 19 5810 (1956) 0 (1965) 365 1 2 3 4 15 86 213 760 3410
2019-10-07 08:30 5.27 20 5810 (1956) 0 (1965) 365 1 2 3 4 15 86 213 760 3410
2019-10-07 08:00 5.27 20 5810 (1956) 0 (1965) 365 1 2 3 4 15 86 213 760 3410
2019-10-07 07:30 5.27 20 5810 (1956) 0 (1965) 365 1 2 3 4 15 86 213 760 3410
2019-10-07 07:00 5.27 20 5810 (1956) 0 (1965) 365 1 2 3 4 15 86 213 760 3410
2019-10-07 06:30 5.27 20 5810 (1956) 0 (1965) 365 1 2 3 4 15 86 213 760 3410
2019-10-07 06:00 5.27 20 5810 (1956) 0 (1965) 365 1 2 3 4 15 86 213 760 3410
2019-10-07 05:30 5.27 20 5810 (1956) 0 (1965) 365 1 2 3 4 15 86 213 760 3410
2019-10-07 05:00 5.27 20 5810 (1956) 0 (1965) 365 1 2 3 4 15 86 213 760 3410
2019-10-07 04:30 5.27 20 5810 (1956) 0 (1965) 365 1 2 3 4 15 86 213 760 3410
2019-10-07 04:00 5.27 20 5810 (1956) 0 (1965) 365 1 2 3 4 15 86 213 760 3410
2019-10-07 03:30 5.27 20 5810 (1956) 0 (1965) 365 1 2 3 4 15 86 213 760 3410
2019-10-07 03:00 5.27 20 5810 (1956) 0 (1965) 365 1 2 3 4 15 86 213 760 3410
2019-10-07 02:30 5.27 20 5810 (1956) 0 (1965) 365 1 2 3 4 15 86 213 760 3410
2019-10-07 02:00 5.27 20 5810 (1956) 0 (1965) 365 1 2 3 4 15 86 213 760 3410
2019-10-07 01:30 5.27 20 5810 (1956) 0 (1965) 365 1 2 3 4 15 86 213 760 3410
2019-10-07 01:00 5.27 20 5810 (1956) 0 (1965) 365 1 2 3 4 15 86 213 760 3410
2019-10-07 00:30 5.27 20 5810 (1956) 0 (1965) 365 1 2 3 4 15 86 213 760 3410
2019-10-07 00:00 5.27 20 5810 (1956) 0 (1965) 365 1 2 3 4 15 86 213 760 3410
2019-10-06 23:30 5.27 20 23400 (1942) 0 (1965) 647 1 2 4 4 13 111 174 1340 4550
2019-10-06 23:00 5.27 20 23400 (1942) 0 (1965) 647 1 2 4 4 13 111 174 1340 4550
2019-10-06 22:30 5.27 20 23400 (1942) 0 (1965) 647 1 2 4 4 13 111 174 1340 4550
2019-10-06 22:00 5.26 19 23400 (1942) 0 (1965) 647 1 2 4 4 13 111 174 1340 4550
2019-10-06 21:30 5.27 20 23400 (1942) 0 (1965) 647 1 2 4 4 13 111 174 1340 4550
2019-10-06 21:00 5.27 20 23400 (1942) 0 (1965) 647 1 2 4 4 13 111 174 1340 4550
2019-10-06 20:30 5.27 20 23400 (1942) 0 (1965) 647 1 2 4 4 13 111 174 1340 4550
2019-10-06 20:00 5.27 20 23400 (1942) 0 (1965) 647 1 2 4 4 13 111 174 1340 4550
2019-10-06 19:30 5.27 20 23400 (1942) 0 (1965) 647 1 2 4 4 13 111 174 1340 4550
2019-10-06 19:00 5.27 20 23400 (1942) 0 (1965) 647 1 2 4 4 13 111 174 1340 4550
2019-10-06 18:30 5.27 20 23400 (1942) 0 (1965) 647 1 2 4 4 13 111 174 1340 4550
2019-10-06 18:00 5.27 20 23400 (1942) 0 (1965) 647 1 2 4 4 13 111 174 1340 4550
2019-10-06 17:30 5.27 20 23400 (1942) 0 (1965) 647 1 2 4 4 13 111 174 1340 4550
2019-10-06 17:00 5.27 20 23400 (1942) 0 (1965) 647 1 2 4 4 13 111 174 1340 4550
2019-10-06 16:30 5.27 20 23400 (1942) 0 (1965) 647 1 2 4 4 13 111 174 1340 4550
2019-10-06 16:00 5.27 20 23400 (1942) 0 (1965) 647 1 2 4 4 13 111 174 1340 4550
2019-10-06 15:30 5.27 20 23400 (1942) 0 (1965) 647 1 2 4 4 13 111 174 1340 4550
2019-10-06 15:00 5.23 18 23400 (1942) 0 (1965) 647 1 2 4 4 13 111 174 1340 4550
2019-10-06 14:30 5.23 18 23400 (1942) 0 (1965) 647 1 2 4 4 13 111 174 1340 4550
2019-10-06 14:00 5.21 17 23400 (1942) 0 (1965) 647 1 2 4 4 13 111 174 1340 4550
2019-10-06 13:30 5.23 18 23400 (1942) 0 (1965) 647 1 2 4 4 13 111 174 1340 4550
2019-10-06 13:00 5.22 17 23400 (1942) 0 (1965) 647 1 2 4 4 13 111 174 1340 4550
2019-10-06 12:30 5.20 16 23400 (1942) 0 (1965) 647 1 2 4 4 13 111 174 1340 4550
2019-10-06 12:00 5.28 20 23400 (1942) 0 (1965) 647 1 2 4 4 13 111 174 1340 4550
2019-10-06 11:30 5.23 18 23400 (1942) 0 (1965) 647 1 2 4 4 13 111 174 1340 4550
2019-10-06 11:00 5.27 20 23400 (1942) 0 (1965) 647 1 2 4 4 13 111 174 1340 4550
2019-10-06 10:30 5.27 20 23400 (1942) 0 (1965) 647 1 2 4 4 13 111 174 1340 4550
2019-10-06 10:00 5.27 20 23400 (1942) 0 (1965) 647 1 2 4 4 13 111 174 1340 4550
2019-10-06 09:30 5.28 20 23400 (1942) 0 (1965) 647 1 2 4 4 13 111 174 1340 4550
2019-10-06 09:00 5.28 20 23400 (1942) 0 (1965) 647 1 2 4 4 13 111 174 1340 4550
2019-10-06 08:30 5.28 20 23400 (1942) 0 (1965) 647 1 2 4 4 13 111 174 1340 4550
2019-10-06 08:00 5.28 20 23400 (1942) 0 (1965) 647 1 2 4 4 13 111 174 1340 4550
2019-10-06 07:30 5.28 20 23400 (1942) 0 (1965) 647 1 2 4 4 13 111 174 1340 4550
2019-10-06 07:00 5.28 20 23400 (1942) 0 (1965) 647 1 2 4 4 13 111 174 1340 4550
2019-10-06 06:30 5.28 20 23400 (1942) 0 (1965) 647 1 2 4 4 13 111 174 1340 4550
2019-10-06 06:00 5.28 20 23400 (1942) 0 (1965) 647 1 2 4 4 13 111 174 1340 4550
2019-10-06 05:30 5.28 20 23400 (1942) 0 (1965) 647 1 2 4 4 13 111 174 1340 4550
2019-10-06 05:00 5.28 20 23400 (1942) 0 (1965) 647 1 2 4 4 13 111 174 1340 4550
2019-10-06 04:30 5.28 20 23400 (1942) 0 (1965) 647 1 2 4 4 13 111 174 1340 4550
2019-10-06 04:00 5.28 20 23400 (1942) 0 (1965) 647 1 2 4 4 13 111 174 1340 4550
2019-10-06 03:30 5.28 20 23400 (1942) 0 (1965) 647 1 2 4 4 13 111 174 1340 4550
2019-10-06 03:00 5.28 20 23400 (1942) 0 (1965) 647 1 2 4 4 13 111 174 1340 4550
2019-10-06 02:30 5.28 20 23400 (1942) 0 (1965) 647 1 2 4 4 13 111 174 1340 4550
2019-10-06 02:00 5.28 20 23400 (1942) 0 (1965) 647 1 2 4 4 13 111 174 1340 4550
2019-10-06 01:30 5.28 20 23400 (1942) 0 (1965) 647 1 2 4 4 13 111 174 1340 4550
2019-10-06 01:00 5.28 20 23400 (1942) 0 (1965) 647 1 2 4 4 13 111 174 1340 4550
2019-10-06 00:30 5.28 20 23400 (1942) 0 (1965) 647 1 2 4 4 13 111 174 1340 4550
2019-10-06 00:00 5.28 20 23400 (1942) 0 (1965) 647 1 2 4 4 13 111 174 1340 4550

A total of 376 rows are displayed for years 1923 through 2018.

Trips for Cuivre River (Missouri), Troy (05514500)

DateStartEndDistanceConditionDischargeHeightFishingDetails

A total of 0 rows are displayed.

Condition Descriptions

Fishing Conditions

Fish Species

Notes

Classic Trip List

The classic River Trips application is still available for use. It is updated with the new system using a data retrofit. It is no longer maintained. The original River Trips application is no longer updated (as of 1 Dec 2016) but can be checked for errors or for the condition of the data before it was converted to the new system.